createdAt,value
2022-12-08T00:02:32.269Z,12.20
2022-12-08T00:05:53.849Z,11.82
2022-12-08T00:09:14.781Z,12.32
2022-12-08T00:12:17.447Z,12.32
2022-12-08T00:15:19.735Z,12.48
2022-12-08T00:18:22.268Z,11.50
2022-12-08T00:21:24.579Z,11.30
2022-12-08T00:24:31.325Z,11.75
2022-12-08T00:27:33.598Z,11.32
2022-12-08T00:30:39.300Z,11.85
2022-12-08T00:33:41.553Z,11.77
2022-12-08T00:36:44.332Z,11.52
2022-12-08T00:39:46.548Z,12.43
2022-12-08T00:42:49.115Z,12.13
2022-12-08T00:45:51.407Z,13.90
2022-12-08T00:48:53.995Z,12.30
2022-12-08T00:51:56.639Z,13.15
2022-12-08T00:54:59.199Z,14.55
2022-12-08T00:58:01.585Z,13.65
2022-12-08T01:01:14.236Z,13.95
2022-12-08T01:04:18.332Z,14.80
2022-12-08T01:07:20.904Z,14.57
2022-12-08T01:10:23.153Z,15.32
2022-12-08T01:13:25.627Z,15.27
2022-12-08T01:16:30.465Z,14.32
2022-12-08T01:19:33.233Z,13.83
2022-12-08T01:22:36.170Z,14.00
2022-12-08T01:25:38.831Z,13.62
2022-12-08T01:28:42.331Z,12.32
2022-12-08T01:31:45.054Z,11.95
2022-12-08T01:34:47.322Z,12.40
2022-12-08T01:37:50.722Z,12.50
2022-12-08T01:40:52.972Z,12.88
2022-12-08T01:44:23.685Z,12.52
2022-12-08T01:47:30.567Z,14.02
2022-12-08T01:50:34.050Z,12.37
2022-12-08T01:53:36.957Z,14.48
2022-12-08T01:56:55.234Z,15.20
2022-12-08T02:00:07.092Z,15.93
2022-12-08T02:03:16.152Z,16.48
2022-12-08T02:06:19.656Z,13.67
2022-12-08T02:09:22.485Z,12.68
2022-12-08T02:12:24.894Z,13.18
2022-12-08T02:16:02.363Z,14.30
2022-12-08T02:19:32.364Z,13.07
2022-12-08T02:22:53.851Z,13.37
2022-12-08T02:26:23.895Z,13.27
2022-12-08T02:30:02.546Z,12.85
2022-12-08T02:33:26.521Z,12.85
2022-12-08T02:36:51.661Z,12.70
2022-12-08T02:39:56.929Z,19.57
2022-12-08T02:43:16.930Z,19.50
2022-12-08T02:46:24.749Z,17.55
2022-12-08T02:49:33.151Z,16.08
2022-12-08T02:52:40.701Z,15.68
2022-12-08T02:56:04.874Z,14.37
2022-12-08T02:59:32.402Z,13.88
2022-12-08T03:03:03.926Z,15.80
2022-12-08T03:06:37.027Z,14.65
2022-12-08T03:09:50.123Z,15.70
2022-12-08T03:13:15.794Z,15.27
2022-12-08T03:16:25.641Z,14.80
2022-12-08T03:19:33.840Z,15.80
2022-12-08T03:22:39.295Z,15.75
2022-12-08T03:25:49.531Z,16.02
2022-12-08T03:28:52.083Z,15.10
2022-12-08T03:32:01.236Z,17.05
2022-12-08T03:35:09.240Z,16.10
2022-12-08T03:38:15.584Z,17.50
2022-12-08T03:41:18.538Z,17.23
2022-12-08T03:44:20.742Z,17.10
2022-12-08T03:47:23.502Z,16.62
2022-12-08T03:50:26.303Z,15.52
2022-12-08T03:53:28.845Z,19.02
2022-12-08T03:56:36.971Z,18.98
2022-12-08T03:59:39.668Z,19.90
2022-12-08T04:02:42.048Z,21.00
2022-12-08T04:05:44.590Z,19.25
2022-12-08T04:08:46.973Z,18.27
2022-12-08T04:11:52.297Z,20.42
2022-12-08T04:14:54.536Z,18.17
2022-12-08T04:17:57.082Z,19.00
2022-12-08T04:20:59.304Z,18.27
2022-12-08T04:24:02.572Z,17.02
2022-12-08T04:27:04.866Z,17.75
2022-12-08T04:30:08.282Z,18.27
2022-12-08T04:33:10.887Z,17.00
2022-12-08T04:36:13.422Z,18.05
2022-12-08T04:39:15.683Z,18.00
2022-12-08T04:42:18.234Z,17.90
2022-12-08T04:45:20.514Z,17.93
2022-12-08T04:48:23.173Z,17.83
2022-12-08T04:51:27.328Z,17.48
2022-12-08T04:54:30.421Z,19.33
2022-12-08T04:57:32.769Z,19.23
2022-12-08T05:00:35.243Z,19.10
2022-12-08T05:03:37.734Z,17.00
2022-12-08T05:06:40.244Z,18.98
2022-12-08T05:09:42.604Z,18.67
2022-12-08T05:12:45.129Z,18.80
2022-12-08T05:15:47.447Z,17.97
2022-12-08T05:18:50.025Z,19.08
2022-12-08T05:21:52.261Z,19.17
2022-12-08T05:24:54.866Z,19.27
2022-12-08T05:28:17.472Z,18.90
2022-12-08T05:31:19.758Z,18.30
2022-12-08T05:34:22.147Z,18.35
2022-12-08T05:37:24.700Z,18.87
2022-12-08T05:40:27.152Z,18.10
2022-12-08T05:43:29.795Z,18.12
2022-12-08T05:46:32.235Z,23.07
2022-12-08T05:49:34.795Z,21.20
2022-12-08T05:52:37.134Z,20.15
2022-12-08T05:55:39.706Z,22.40
2022-12-08T05:58:42.414Z,22.05
2022-12-08T06:01:45.002Z,23.17
2022-12-08T06:04:47.563Z,25.35
2022-12-08T06:07:49.902Z,23.85
2022-12-08T06:10:52.519Z,24.00
2022-12-08T06:13:56.666Z,24.58
2022-12-08T06:16:59.215Z,24.50
2022-12-08T06:20:02.115Z,23.42
2022-12-08T06:23:04.894Z,25.00
2022-12-08T06:26:13.412Z,24.75
2022-12-08T06:29:15.956Z,25.83
2022-12-08T06:32:20.808Z,23.67
2022-12-08T06:35:26.998Z,23.92
2022-12-08T06:38:29.856Z,24.98
2022-12-08T06:41:32.442Z,23.15
2022-12-08T06:44:34.707Z,25.50
2022-12-08T06:47:37.408Z,25.67
2022-12-08T06:50:39.697Z,22.60
2022-12-08T06:53:43.293Z,22.95
2022-12-08T06:56:45.568Z,23.25
2022-12-08T06:59:48.138Z,20.12
2022-12-08T07:02:50.498Z,20.13
2022-12-08T07:06:03.243Z,20.35
2022-12-08T07:09:06.463Z,21.73
2022-12-08T07:12:08.988Z,21.73
2022-12-08T07:15:11.503Z,22.58
2022-12-08T07:18:14.090Z,20.07
2022-12-08T07:21:17.568Z,21.35
2022-12-08T07:24:20.173Z,20.50
2022-12-08T07:27:22.463Z,20.73
2022-12-08T07:30:25.024Z,20.35
2022-12-08T07:33:27.694Z,21.13
2022-12-08T07:36:30.310Z,21.58
2022-12-08T07:39:32.510Z,21.17
2022-12-08T07:42:35.437Z,20.12
2022-12-08T07:45:37.675Z,21.02
2022-12-08T07:48:40.740Z,19.17
2022-12-08T07:51:42.954Z,19.77
2022-12-08T07:54:45.586Z,20.75
2022-12-08T07:57:47.838Z,20.15
2022-12-08T08:00:50.489Z,20.73
2022-12-08T08:03:54.850Z,21.20
2022-12-08T08:06:57.337Z,22.13
2022-12-08T08:10:00.242Z,22.13
2022-12-08T08:13:02.792Z,22.40
2022-12-08T08:16:10.297Z,20.75
2022-12-08T08:19:12.656Z,20.87
2022-12-08T08:22:15.285Z,20.42
2022-12-08T08:25:18.959Z,22.42
2022-12-08T08:28:21.524Z,22.90
2022-12-08T08:31:27.268Z,22.77
2022-12-08T08:34:29.983Z,21.50
2022-12-08T08:37:32.359Z,21.40
2022-12-08T08:40:34.942Z,21.27
2022-12-08T08:43:38.678Z,20.25
2022-12-08T08:46:41.823Z,21.58
2022-12-08T08:49:44.123Z,21.23
2022-12-08T08:52:46.790Z,19.55
2022-12-08T08:55:50.158Z,20.37
2022-12-08T08:58:53.503Z,20.95
2022-12-08T09:01:56.278Z,22.65
2022-12-08T09:04:59.737Z,21.43
2022-12-08T09:08:02.229Z,22.05
2022-12-08T09:11:05.028Z,21.73
2022-12-08T09:14:07.472Z,21.08
2022-12-08T09:17:10.082Z,24.35
2022-12-08T09:20:12.611Z,22.30
2022-12-08T09:23:15.176Z,21.75
2022-12-08T09:26:17.624Z,20.85
2022-12-08T09:29:20.278Z,22.13
2022-12-08T09:32:22.656Z,21.48
2022-12-08T09:35:25.252Z,21.23
2022-12-08T09:38:27.560Z,22.25
2022-12-08T09:41:58.371Z,23.12
2022-12-08T09:45:12.107Z,20.98
2022-12-08T09:48:37.217Z,27.17
2022-12-08T09:51:42.395Z,22.90
2022-12-08T09:54:45.321Z,21.98
2022-12-08T09:57:57.914Z,21.45
2022-12-08T10:01:00.522Z,22.45
2022-12-08T10:04:03.242Z,22.20
2022-12-08T10:07:30.897Z,21.70
2022-12-08T10:10:57.965Z,20.65
2022-12-08T10:14:33.979Z,21.12
2022-12-08T10:17:42.606Z,17.73
2022-12-08T10:20:48.145Z,20.12
2022-12-08T10:24:02.071Z,21.47
2022-12-08T10:27:08.203Z,21.05
2022-12-08T10:30:16.584Z,21.77
2022-12-08T10:33:22.060Z,21.75
2022-12-08T10:36:54.381Z,20.20
2022-12-08T10:40:02.869Z,19.27
2022-12-08T10:43:07.045Z,20.80
2022-12-08T10:46:27.464Z,22.92
2022-12-08T10:49:32.438Z,19.90
2022-12-08T10:52:41.117Z,20.15
2022-12-08T10:55:46.441Z,21.70
2022-12-08T10:58:49.237Z,20.02
2022-12-08T11:01:54.583Z,20.35
2022-12-08T11:05:00.227Z,20.73
2022-12-08T11:08:04.893Z,20.17
2022-12-08T11:11:07.614Z,20.20
2022-12-08T11:14:18.382Z,20.55
2022-12-08T11:17:25.201Z,20.85
2022-12-08T11:20:28.313Z,20.30
2022-12-08T11:23:31.160Z,17.60
2022-12-08T11:26:37.011Z,13.40
2022-12-08T11:29:46.382Z,13.85
2022-12-08T11:32:52.999Z,11.93
2022-12-08T11:36:09.066Z,10.52
2022-12-08T11:39:13.208Z,11.73
2022-12-08T11:42:22.044Z,16.95
2022-12-08T11:45:30.088Z,20.30
2022-12-08T11:48:37.010Z,13.98
2022-12-08T11:51:46.986Z,13.82
2022-12-08T11:54:58.325Z,12.17
2022-12-08T11:58:18.820Z,10.60
2022-12-08T12:01:26.149Z,16.05
2022-12-08T12:04:37.128Z,12.75
2022-12-08T12:07:45.478Z,14.48
2022-12-08T12:11:10.305Z,13.43
2022-12-08T12:14:31.835Z,12.55
2022-12-08T12:18:05.141Z,11.02
2022-12-08T12:21:16.228Z,10.27
2022-12-08T12:24:50.310Z,10.82
2022-12-08T12:27:59.399Z,12.43
2022-12-08T12:31:08.537Z,11.95
2022-12-08T12:34:28.254Z,11.20
2022-12-08T12:37:45.833Z,11.70
2022-12-08T12:40:48.681Z,10.68
2022-12-08T12:44:08.293Z,10.30
2022-12-08T12:47:13.179Z,10.43
2022-12-08T12:50:45.905Z,9.32
2022-12-08T12:53:50.093Z,10.10
2022-12-08T12:56:57.124Z,9.45
2022-12-08T12:59:59.331Z,10.33
2022-12-08T13:03:02.022Z,11.12
2022-12-08T13:06:06.207Z,11.77
2022-12-08T13:09:31.760Z,14.80
2022-12-08T13:12:34.110Z,16.37
2022-12-08T13:15:48.521Z,12.60
2022-12-08T13:18:56.207Z,13.52
2022-12-08T13:22:00.226Z,11.57
2022-12-08T13:25:39.759Z,10.73
2022-12-08T13:29:01.412Z,10.57
2022-12-08T13:32:07.207Z,16.53
2022-12-08T13:35:11.980Z,17.25
2022-12-08T13:38:19.380Z,18.23
2022-12-08T13:41:34.645Z,18.92
2022-12-08T13:45:58.909Z,18.60
2022-12-08T13:59:19.450Z,16.90
2022-12-08T14:02:49.480Z,15.43
2022-12-08T14:09:21.166Z,14.07
2022-12-08T14:12:27.123Z,11.82
2022-12-08T14:15:37.232Z,10.38
2022-12-08T14:18:41.367Z,10.85
2022-12-08T14:21:51.212Z,11.30
2022-12-08T14:24:54.804Z,11.45
2022-12-08T14:28:01.254Z,11.02
2022-12-08T14:31:04.688Z,10.50
2022-12-08T14:34:07.146Z,11.68
2022-12-08T14:37:13.017Z,14.87
2022-12-08T14:40:23.032Z,15.18
2022-12-08T14:43:31.106Z,15.93
2022-12-08T14:46:33.942Z,16.40
2022-12-08T14:49:39.127Z,16.70
2022-12-08T14:52:44.420Z,16.37
2022-12-08T14:55:48.930Z,17.48
2022-12-08T14:59:05.830Z,15.60
2022-12-08T15:02:24.306Z,14.90
2022-12-08T15:05:30.887Z,15.30
2022-12-08T15:08:35.183Z,15.83
2022-12-08T15:11:37.456Z,16.80
2022-12-08T15:14:57.814Z,15.95
2022-12-08T15:18:20.871Z,17.25
2022-12-08T15:21:30.808Z,16.73
2022-12-08T15:24:35.585Z,15.93
2022-12-08T15:27:49.623Z,15.23
2022-12-08T15:30:53.765Z,15.63
2022-12-08T15:33:56.408Z,14.07
2022-12-08T15:36:58.727Z,13.88
2022-12-08T15:40:01.232Z,14.83
2022-12-08T15:43:03.636Z,15.85
2022-12-08T15:46:06.595Z,15.85
2022-12-08T15:49:17.765Z,16.15
2022-12-08T15:52:23.315Z,15.38
2022-12-08T15:55:25.600Z,16.50
2022-12-08T16:01:52.161Z,16.95
2022-12-08T16:12:09.554Z,15.07
2022-12-08T16:18:39.489Z,14.87
2022-12-08T16:25:21.635Z,14.05
2022-12-08T16:28:52.966Z,14.00
2022-12-08T16:31:47.569Z,13.95
2022-12-08T16:34:50.649Z,13.98
2022-12-08T16:37:55.653Z,15.55
2022-12-08T16:41:16.374Z,13.32
2022-12-08T16:44:18.898Z,14.73
2022-12-08T16:47:21.194Z,14.20
2022-12-08T16:50:44.864Z,14.43
2022-12-08T16:53:47.139Z,13.10
2022-12-08T16:56:49.715Z,14.02
2022-12-08T16:59:51.962Z,14.30
2022-12-08T17:02:55.373Z,16.55
2022-12-08T17:05:57.640Z,16.83
2022-12-08T17:09:00.277Z,16.23
2022-12-08T17:12:04.189Z,15.80
2022-12-08T17:15:09.249Z,15.53
2022-12-08T17:18:12.064Z,16.20
2022-12-08T17:21:17.021Z,16.08
2022-12-08T17:24:22.215Z,17.30
2022-12-08T17:27:25.425Z,15.10
2022-12-08T17:30:27.719Z,16.50
2022-12-08T17:33:30.233Z,16.77
2022-12-08T17:36:32.610Z,14.75
2022-12-08T17:39:35.269Z,13.20
2022-12-08T17:42:38.684Z,11.50
2022-12-08T17:45:46.882Z,13.13
2022-12-08T17:48:49.446Z,12.27
2022-12-08T17:51:54.554Z,12.75
2022-12-08T17:54:56.835Z,14.05
2022-12-08T17:57:59.398Z,12.18
2022-12-08T18:01:08.110Z,11.57
2022-12-08T18:04:11.870Z,12.13
2022-12-08T18:07:14.152Z,11.27
2022-12-08T18:10:18.379Z,12.18
2022-12-08T18:13:20.690Z,10.88
2022-12-08T18:16:25.844Z,16.67
2022-12-08T18:19:28.202Z,14.63
2022-12-08T18:22:30.710Z,16.12
2022-12-08T18:25:32.999Z,17.65
2022-12-08T18:28:36.633Z,17.10
2022-12-08T18:31:38.953Z,18.13
2022-12-08T18:34:41.796Z,17.08
2022-12-08T18:37:44.271Z,16.83
2022-12-08T18:40:46.829Z,16.08
2022-12-08T18:43:49.039Z,15.88
2022-12-08T18:46:51.576Z,19.03
2022-12-08T18:49:55.084Z,14.82
2022-12-08T18:52:57.752Z,16.73
2022-12-08T18:56:00.057Z,15.07
2022-12-08T18:59:08.535Z,14.57
2022-12-08T19:02:12.425Z,14.90
2022-12-08T19:05:15.282Z,15.25
2022-12-08T19:08:18.279Z,12.35
2022-12-08T19:11:26.739Z,12.20
2022-12-08T19:14:30.465Z,11.73
2022-12-08T19:17:33.186Z,11.07
2022-12-08T19:20:35.387Z,11.85
2022-12-08T19:23:38.930Z,12.20
2022-12-08T19:26:41.462Z,11.40
2022-12-08T19:29:44.051Z,11.20
2022-12-08T19:32:46.481Z,12.93
2022-12-08T19:35:52.733Z,12.40
2022-12-08T19:39:15.664Z,11.93
2022-12-08T19:42:39.888Z,13.43
2022-12-08T19:45:42.254Z,13.10
2022-12-08T19:48:45.012Z,12.53
2022-12-08T19:51:47.268Z,14.68
2022-12-08T19:54:49.874Z,13.10
2022-12-08T19:57:52.738Z,13.80
2022-12-08T20:00:55.559Z,12.18
2022-12-08T20:03:58.133Z,12.07
2022-12-08T20:07:00.624Z,12.30
2022-12-08T20:10:09.849Z,13.77
2022-12-08T20:13:30.989Z,12.50
2022-12-08T20:16:34.107Z,13.43
2022-12-08T20:19:36.603Z,13.60
2022-12-08T20:22:39.301Z,14.48
2022-12-08T20:25:44.059Z,14.35
2022-12-08T20:28:46.946Z,13.18
2022-12-08T20:31:49.378Z,13.18
2022-12-08T20:34:52.056Z,13.73
2022-12-08T20:37:54.384Z,15.07
2022-12-08T20:40:58.184Z,14.70
2022-12-08T20:44:00.458Z,13.73
2022-12-08T20:47:03.051Z,14.20
2022-12-08T20:50:07.037Z,14.50
2022-12-08T20:53:09.861Z,13.68
2022-12-08T20:56:17.473Z,14.52
2022-12-08T20:59:20.526Z,14.07
2022-12-08T21:02:22.958Z,14.98
2022-12-08T21:05:25.894Z,15.33
2022-12-08T21:08:28.522Z,15.05
2022-12-08T21:11:31.473Z,14.70
2022-12-08T21:14:34.008Z,14.10
2022-12-08T21:17:36.732Z,14.60
2022-12-08T21:20:39.134Z,15.80
2022-12-08T21:23:42.850Z,15.25
2022-12-08T21:26:45.298Z,15.57
2022-12-08T21:29:48.022Z,15.68
2022-12-08T21:32:50.611Z,16.80
2022-12-08T21:36:02.198Z,15.07
2022-12-08T21:39:11.268Z,16.33
2022-12-08T21:42:34.462Z,15.80
2022-12-08T21:45:37.184Z,14.95
2022-12-08T21:48:39.811Z,15.60
2022-12-08T21:51:42.810Z,15.80
2022-12-08T21:54:45.542Z,15.30
2022-12-08T21:57:47.887Z,15.00
2022-12-08T22:00:50.565Z,16.27
2022-12-08T22:03:53.748Z,16.00
2022-12-08T22:06:56.392Z,15.53
2022-12-08T22:09:59.345Z,15.70
2022-12-08T22:13:01.782Z,16.00
2022-12-08T22:16:07.594Z,16.08
2022-12-08T22:19:11.043Z,16.37
2022-12-08T22:22:13.716Z,16.23
2022-12-08T22:25:16.157Z,16.62
2022-12-08T22:28:18.697Z,16.60
2022-12-08T22:31:21.231Z,16.95
2022-12-08T22:34:23.927Z,17.20
2022-12-08T22:37:26.510Z,16.50
2022-12-08T22:40:29.468Z,17.45
2022-12-08T22:43:32.658Z,16.58
2022-12-08T22:46:35.886Z,16.77
2022-12-08T22:49:38.426Z,18.42
2022-12-08T22:52:41.098Z,17.37
2022-12-08T22:55:44.330Z,17.62
2022-12-08T22:58:47.424Z,17.30
2022-12-08T23:01:49.933Z,17.62
2022-12-08T23:04:56.356Z,18.52
2022-12-08T23:07:59.109Z,17.77
2022-12-08T23:11:01.731Z,18.77
2022-12-08T23:14:04.069Z,19.85
2022-12-08T23:17:07.005Z,18.08
2022-12-08T23:20:10.620Z,18.70
2022-12-08T23:23:13.664Z,18.13
2022-12-08T23:26:22.946Z,18.20
2022-12-08T23:29:25.727Z,18.70
2022-12-08T23:32:28.280Z,18.83
2022-12-08T23:35:31.317Z,18.25
2022-12-08T23:38:34.024Z,19.27
2022-12-08T23:41:37.065Z,17.67
2022-12-08T23:44:39.588Z,19.37
2022-12-08T23:47:42.257Z,18.83
2022-12-08T23:50:44.769Z,18.87
2022-12-08T23:53:47.457Z,20.13
2022-12-08T23:56:49.750Z,20.17
2022-12-08T23:59:52.463Z,20.27
